Time;durP1;ratioP1;P1;durP2;ratioP2;P2;SDS_P1;SDS_P2;PMS_P1;PMS_P2;Temp;Humidity;BMP_temperature;BMP_pressure;BME280_temperature;BME280_humidity;BME280_pressure;Samples;Min_cycle;Max_cycle;Signal;HPM_P1;HPM_P2
2022/07/17 00:02:13;;;;;;;0.50;0.30;;;24.10;43.30;23.30;102317.00;;;;5031919;28;20041;-72
2022/07/17 00:04:59;;;;;;;1.83;0.47;;;24.10;43.30;23.30;102307.00;;;;5014854;28;20132;-72
2022/07/17 00:07:47;;;;;;;2.55;0.60;;;24.10;43.30;23.30;102312.00;;;;5024197;28;20642;-72
2022/07/17 00:10:37;;;;;;;3.65;0.68;;;24.00;43.30;23.30;102310.00;;;;5025847;28;20041;-71
2022/07/17 00:13:23;;;;;;;2.22;0.50;;;24.00;43.30;23.20;102309.00;;;;5024089;28;20052;-72
2022/07/17 00:16:09;;;;;;;1.70;0.52;;;24.00;43.40;23.30;102313.00;;;;5027383;28;20072;-72
2022/07/17 00:18:55;;;;;;;2.70;0.50;;;24.00;43.40;23.30;102313.00;;;;5019020;28;20037;-71
2022/07/17 00:21:42;;;;;;;2.20;0.35;;;24.00;43.40;23.20;102314.00;;;;5026344;28;20038;-71
2022/07/17 00:24:29;;;;;;;1.20;0.53;;;24.00;43.40;23.20;102316.00;;;;5019601;28;20468;-71
2022/07/17 00:27:15;;;;;;;0.82;0.73;;;24.00;43.40;23.20;102315.00;;;;5014050;28;20041;-72
2022/07/17 00:30:01;;;;;;;1.67;0.40;;;24.00;43.50;23.20;102323.00;;;;5025198;28;20045;-72
2022/07/17 00:32:47;;;;;;;1.48;0.40;;;23.90;43.40;23.20;102311.00;;;;5023651;28;20442;-71
2022/07/17 00:35:33;;;;;;;3.42;0.60;;;23.90;43.40;23.20;102316.00;;;;5020077;28;20038;-71
2022/07/17 00:38:19;;;;;;;1.63;0.60;;;24.00;43.60;23.20;102315.00;;;;5023478;28;20063;-71
2022/07/17 00:41:05;;;;;;;2.28;0.52;;;23.90;43.40;23.20;102324.00;;;;5021354;28;20049;-71
2022/07/17 00:43:51;;;;;;;3.15;0.43;;;23.90;43.50;23.20;102316.00;;;;5022830;28;20475;-72
2022/07/17 00:46:37;;;;;;;1.30;0.30;;;23.90;43.40;23.20;102313.00;;;;5019989;28;20103;-71
2022/07/17 00:49:24;;;;;;;3.55;0.60;;;23.90;43.40;23.10;102312.00;;;;5022745;28;20049;-72
2022/07/17 00:52:10;;;;;;;1.15;0.30;;;23.90;44.20;23.10;102316.00;;;;5024446;28;20072;-71
2022/07/17 00:54:57;;;;;;;3.65;0.60;;;23.90;43.40;23.10;102317.00;;;;5021372;28;20133;-72
2022/07/17 00:57:43;;;;;;;2.60;0.32;;;23.80;43.40;23.10;102312.00;;;;5024978;28;20041;-72
2022/07/17 01:00:29;;;;;;;1.58;0.30;;;23.80;43.40;23.10;102309.00;;;;5023569;28;20123;-72
2022/07/17 01:03:16;;;;;;;1.75;0.70;;;23.90;43.40;23.10;102311.00;;;;5021393;28;20046;-71
2022/07/17 01:06:02;;;;;;;2.20;0.30;;;23.90;43.50;23.10;102309.00;;;;5021661;28;20080;-72
2022/07/17 01:08:48;;;;;;;2.70;0.43;;;23.80;43.40;23.10;102311.00;;;;5017118;28;20415;-71
2022/07/17 01:11:34;;;;;;;0.77;0.50;;;23.80;43.40;23.10;102309.00;;;;5017511;28;20103;-72
2022/07/17 01:14:22;;;;;;;0.70;0.57;;;23.80;43.50;23.00;102310.00;;;;5016558;28;20409;-72
2022/07/17 01:17:08;;;;;;;2.47;0.63;;;23.80;43.40;23.10;102310.00;;;;5019360;28;20037;-72
2022/07/17 01:19:54;;;;;;;1.17;0.55;;;23.80;43.40;23.00;102311.00;;;;5021825;28;20033;-72
2022/07/17 01:22:45;;;;;;;1.38;0.47;;;23.80;43.40;23.00;102317.00;;;;5020785;28;20079;-72
2022/07/17 01:25:32;;;;;;;6.57;0.77;;;23.80;43.50;23.00;102316.00;;;;5020981;28;20450;-72
2022/07/17 01:28:18;;;;;;;1.02;0.32;;;23.80;43.50;23.00;102317.00;;;;5028384;28;20049;-71
2022/07/17 01:31:04;;;;;;;0.85;0.30;;;23.80;43.60;23.00;102316.00;;;;5025361;28;20104;-72
2022/07/17 01:33:50;;;;;;;0.85;0.30;;;23.70;43.40;23.00;102318.00;;;;5021026;28;20081;-71
2022/07/17 01:36:36;;;;;;;6.10;0.68;;;23.70;43.40;23.00;102317.00;;;;5051822;28;20076;-72
2022/07/17 01:39:52;;;;;;;1.30;0.40;;;23.70;43.50;23.00;102326.00;;;;5024941;28;20034;-72
2022/07/17 01:42:28;;;;;;;1.33;0.50;;;23.70;43.40;22.90;102314.00;;;;5026275;28;20563;-71
2022/07/17 01:45:16;;;;;;;1.48;0.40;;;23.70;43.40;22.90;102321.00;;;;5021399;28;20227;-71
2022/07/17 01:48:02;;;;;;;1.23;0.43;;;23.70;43.40;22.90;102319.00;;;;5022051;28;20210;-72
2022/07/17 01:50:48;;;;;;;0.57;0.40;;;23.70;43.40;22.90;102332.00;;;;5026669;28;20552;-71
2022/07/17 01:53:34;;;;;;;1.10;0.40;;;23.70;43.40;22.90;102328.00;;;;5022583;28;20068;-72
2022/07/17 01:56:21;;;;;;;1.65;0.52;;;23.60;43.40;22.90;102317.00;;;;5028101;28;20044;-71
2022/07/17 01:59:07;;;;;;;0.90;0.50;;;23.70;43.50;22.90;102314.00;;;;5026844;28;20037;-72
2022/07/17 02:01:53;;;;;;;0.95;0.52;;;23.70;44.20;22.90;102319.00;;;;5008984;28;20057;-71
2022/07/17 02:04:42;;;;;;;2.03;0.50;;;23.60;43.50;22.90;102324.00;;;;5019945;28;20107;-71
2022/07/17 02:07:28;;;;;;;1.95;0.22;;;23.60;43.40;22.90;102321.00;;;;5022108;28;20051;-71
2022/07/17 02:10:14;;;;;;;1.35;0.30;;;23.60;43.50;22.80;102319.00;;;;5024558;28;20068;-71
2022/07/17 02:13:00;;;;;;;1.30;0.75;;;23.60;43.40;22.80;102321.00;;;;5018486;28;20773;-71
2022/07/17 02:15:46;;;;;;;2.13;0.45;;;23.60;43.40;22.80;102321.00;;;;5021332;28;20041;-72
2022/07/17 02:18:32;;;;;;;0.60;0.30;;;23.50;43.50;22.80;102318.00;;;;5022811;28;20332;-71
2022/07/17 02:21:18;;;;;;;1.23;0.40;;;23.60;43.40;22.80;102320.00;;;;5013743;28;20075;-71
2022/07/17 02:24:05;;;;;;;1.05;0.40;;;23.60;43.40;22.80;102329.00;;;;5023465;28;20095;-72
2022/07/17 02:26:51;;;;;;;1.13;0.40;;;23.50;43.50;22.80;102321.00;;;;5024321;28;20053;-71
2022/07/17 02:29:37;;;;;;;0.55;0.35;;;23.50;43.50;22.80;102327.00;;;;5023023;28;20526;-72
2022/07/17 02:32:23;;;;;;;1.45;0.70;;;23.50;43.40;22.80;102323.00;;;;5023599;28;20487;-72
2022/07/17 02:35:10;;;;;;;2.83;0.55;;;23.50;43.40;22.80;102327.00;;;;5019637;28;20038;-71
2022/07/17 02:37:56;;;;;;;0.50;0.30;;;23.50;43.40;22.80;102334.00;;;;5022940;28;20037;-71
2022/07/17 02:40:42;;;;;;;0.88;0.38;;;23.50;43.40;22.80;102332.00;;;;5021480;28;20033;-71
2022/07/17 02:43:28;;;;;;;0.98;0.47;;;23.50;43.50;22.80;102332.00;;;;5025137;28;20079;-71
2022/07/17 02:46:14;;;;;;;1.83;0.40;;;23.50;43.50;22.70;102329.00;;;;5021977;28;20106;-72
2022/07/17 02:49:00;;;;;;;1.08;0.45;;;23.50;43.50;22.70;102333.00;;;;5023691;28;20419;-72
2022/07/17 02:51:46;;;;;;;1.50;0.50;;;23.50;43.50;22.70;102335.00;;;;5029201;28;20052;-72
2022/07/17 02:54:32;;;;;;;1.83;0.38;;;23.50;43.50;22.70;102337.00;;;;5019537;28;20403;-72
2022/07/17 02:57:18;;;;;;;1.17;0.45;;;23.40;43.50;22.70;102339.00;;;;5031835;28;20415;-71
2022/07/17 03:00:07;;;;;;;2.22;0.50;;;23.40;43.60;22.70;102341.00;;;;5025565;28;20045;-71
2022/07/17 03:02:53;;;;;;;1.80;0.40;;;23.40;43.50;22.70;102350.00;;;;5024611;28;20065;-71
2022/07/17 03:05:39;;;;;;;1.10;0.57;;;23.40;43.60;22.70;102343.00;;;;5024815;28;20307;-71
2022/07/17 03:08:25;;;;;;;0.80;0.40;;;23.40;43.60;22.70;102342.00;;;;5017100;28;20045;-71
2022/07/17 03:11:11;;;;;;;1.35;0.50;;;23.40;43.60;22.70;102345.00;;;;5027486;28;20338;-72
2022/07/17 03:13:57;;;;;;;2.60;0.50;;;23.40;43.60;22.60;102336.00;;;;5014936;28;20411;-71
2022/07/17 03:16:43;;;;;;;0.55;0.50;;;23.40;43.60;22.60;102340.00;;;;5024198;28;20065;-72
2022/07/17 03:19:29;;;;;;;1.55;0.60;;;23.40;43.50;22.60;102328.00;;;;5026816;28;20483;-71
2022/07/17 03:22:15;;;;;;;0.80;0.43;;;23.40;43.50;22.60;102333.00;;;;5024735;28;20046;-71
2022/07/17 03:25:01;;;;;;;2.90;1.08;;;23.40;43.50;22.60;102337.00;;;;5027546;28;20056;-72
2022/07/17 03:27:48;;;;;;;2.08;0.60;;;23.40;43.60;22.60;102341.00;;;;5017687;28;20124;-71
2022/07/17 03:30:34;;;;;;;4.05;0.43;;;23.30;43.60;22.60;102334.00;;;;5016671;28;20312;-72
2022/07/17 03:33:20;;;;;;;2.53;0.50;;;23.30;43.50;22.60;102337.00;;;;5024999;28;20041;-71
2022/07/17 03:36:06;;;;;;;1.85;0.65;;;23.30;43.50;22.60;102346.00;;;;5015787;28;20064;-71
2022/07/17 03:38:52;;;;;;;2.92;0.57;;;23.30;43.50;22.50;102337.00;;;;5017238;28;20042;-72
2022/07/17 03:41:38;;;;;;;1.38;0.47;;;23.20;43.40;22.50;102338.00;;;;5028887;28;20052;-72
2022/07/17 03:44:24;;;;;;;1.23;0.40;;;23.30;43.50;22.50;102336.00;;;;5023224;28;20041;-71
2022/07/17 03:47:10;;;;;;;1.42;0.50;;;23.30;43.50;22.50;102335.00;;;;5028280;28;20045;-72
2022/07/17 03:49:56;;;;;;;1.25;0.30;;;23.20;43.40;22.50;102334.00;;;;5020327;28;20115;-71
2022/07/17 03:52:42;;;;;;;3.05;0.65;;;23.30;43.50;22.50;102324.00;;;;5033203;28;20040;-72
2022/07/17 03:55:28;;;;;;;0.57;0.35;;;23.30;43.50;22.50;102315.00;;;;5023775;28;20308;-71
2022/07/17 03:58:15;;;;;;;5.20;0.70;;;23.30;43.40;22.50;102321.00;;;;5025884;28;20196;-72
2022/07/17 04:01:02;;;;;;;1.10;0.50;;;23.30;43.40;22.50;102317.00;;;;5029037;28;20042;-72
2022/07/17 04:03:48;;;;;;;2.00;0.43;;;23.20;43.30;22.50;102323.00;;;;5023489;28;20450;-72
2022/07/17 04:06:34;;;;;;;1.75;0.63;;;23.20;43.30;22.50;102311.00;;;;5022013;28;20056;-72
2022/07/17 04:09:20;;;;;;;1.25;0.35;;;23.20;43.30;22.50;102317.00;;;;5017507;28;20048;-71
2022/07/17 04:12:06;;;;;;;1.45;0.50;;;23.20;43.30;22.50;102326.00;;;;5029467;28;20060;-72
2022/07/17 04:14:52;;;;;;;2.55;0.50;;;23.20;43.40;22.50;102332.00;;;;5015919;28;20038;-72
2022/07/17 04:17:38;;;;;;;1.83;0.50;;;23.20;43.40;22.50;102344.00;;;;5023855;28;20411;-72
2022/07/17 04:20:24;;;;;;;0.57;0.40;;;23.20;43.40;22.50;102346.00;;;;5024074;28;20029;-72
2022/07/17 04:23:11;;;;;;;2.55;0.45;;;23.20;43.40;22.50;102345.00;;;;5025495;28;20426;-72
2022/07/17 04:25:57;;;;;;;1.85;0.70;;;23.20;43.50;22.50;102357.00;;;;5025691;28;20292;-72
2022/07/17 04:28:43;;;;;;;1.90;0.60;;;23.20;43.50;22.50;102363.00;;;;5021485;28;20103;-72
2022/07/17 04:31:29;;;;;;;1.08;0.60;;;23.20;43.50;22.50;102361.00;;;;5013064;28;20308;-72
2022/07/17 04:34:15;;;;;;;3.58;0.70;;;23.20;43.50;22.40;102359.00;;;;5020504;28;20029;-72
2022/07/17 04:37:01;;;;;;;1.15;0.40;;;23.20;43.50;22.40;102358.00;;;;5023552;28;20034;-72
2022/07/17 04:39:47;;;;;;;2.13;0.50;;;23.20;43.30;22.40;102364.00;;;;5018450;28;20038;-71
2022/07/17 04:42:34;;;;;;;1.15;0.65;;;23.20;43.40;22.40;102365.00;;;;5024873;28;20033;-72
2022/07/17 04:45:20;;;;;;;3.38;0.70;;;23.20;43.40;22.40;102372.00;;;;5018986;28;20135;-72
2022/07/17 04:48:06;;;;;;;0.85;0.60;;;23.20;43.50;22.40;102363.00;;;;5020047;28;20045;-71
2022/07/17 04:50:52;;;;;;;1.70;0.63;;;23.10;43.50;22.40;102373.00;;;;5021738;28;20076;-72
2022/07/17 04:53:38;;;;;;;1.45;0.43;;;23.20;43.50;22.40;102373.00;;;;5025366;28;20061;-72
2022/07/17 04:56:24;;;;;;;1.23;0.50;;;23.20;43.50;22.40;102366.00;;;;5030391;28;20052;-72
2022/07/17 04:59:10;;;;;;;2.65;0.50;;;23.20;43.40;22.40;102371.00;;;;5026414;28;20109;-72
2022/07/17 05:01:56;;;;;;;1.42;0.43;;;23.20;43.50;22.40;102366.00;;;;5025503;28;20487;-72
2022/07/17 05:04:42;;;;;;;0.60;0.50;;;23.20;43.40;22.40;102360.00;;;;5023824;28;20053;-72
2022/07/17 05:07:29;;;;;;;0.90;0.30;;;23.20;43.40;22.40;102359.00;;;;5022487;28;20053;-71
2022/07/17 05:10:15;;;;;;;0.70;0.63;;;23.20;43.50;22.40;102364.00;;;;5026047;28;20045;-72
2022/07/17 05:13:01;;;;;;;2.92;0.60;;;23.20;43.50;22.40;102365.00;;;;5028472;28;20045;-71
2022/07/17 05:15:47;;;;;;;0.50;0.40;;;23.20;43.50;22.40;102361.00;;;;5020831;28;20048;-71
2022/07/17 05:18:33;;;;;;;1.05;0.40;;;23.20;43.50;22.40;102361.00;;;;5022521;28;20049;-71
2022/07/17 05:21:19;;;;;;;1.65;0.50;;;23.10;43.40;22.40;102362.00;;;;5026781;28;20044;-71
2022/07/17 05:24:05;;;;;;;1.02;0.40;;;23.10;43.40;22.40;102368.00;;;;5027350;28;20275;-72
2022/07/17 05:26:51;;;;;;;1.02;0.57;;;23.20;43.40;22.40;102371.00;;;;5031065;28;20148;-71
2022/07/17 05:29:38;;;;;;;0.95;0.47;;;23.20;43.30;22.40;102373.00;;;;5021506;28;20514;-71
2022/07/17 05:32:24;;;;;;;1.15;0.60;;;23.20;43.40;22.40;102378.00;;;;5027501;28;20033;-72
2022/07/17 05:35:10;;;;;;;2.25;0.60;;;23.20;43.40;22.40;102381.00;;;;5028335;28;20052;-71
2022/07/17 05:37:56;;;;;;;1.52;0.50;;;23.20;43.50;22.40;102385.00;;;;5024661;28;20045;-72
2022/07/17 05:40:42;;;;;;;2.28;0.77;;;23.20;43.40;22.40;102382.00;;;;5023414;28;20041;-71
2022/07/17 05:43:28;;;;;;;1.02;0.50;;;23.20;43.60;22.40;102377.00;;;;5024179;28;20052;-72
2022/07/17 05:46:14;;;;;;;0.98;0.50;;;23.20;43.90;22.40;102378.00;;;;5028805;28;20072;-72
2022/07/17 05:49:00;;;;;;;1.80;0.47;;;23.20;43.50;22.50;102384.00;;;;5025129;28;20041;-72
2022/07/17 05:51:47;;;;;;;1.50;0.60;;;23.30;43.60;22.50;102372.00;;;;5023733;28;20099;-71
2022/07/17 05:54:33;;;;;;;0.73;0.50;;;23.30;43.70;22.50;102382.00;;;;5025010;28;20046;-71
2022/07/17 05:57:19;;;;;;;1.30;0.52;;;23.30;43.60;22.50;102369.00;;;;5027562;28;20045;-71
2022/07/17 06:00:06;;;;;;;1.23;0.70;;;23.30;43.60;22.50;102360.00;;;;5024322;28;20521;-71
2022/07/17 06:02:52;;;;;;;1.52;0.52;;;23.30;43.60;22.50;102383.00;;;;5018495;28;20091;-71
2022/07/17 06:05:38;;;;;;;1.10;0.50;;;23.30;43.70;22.50;102374.00;;;;5024162;28;20398;-71
2022/07/17 06:08:24;;;;;;;0.82;0.45;;;23.30;43.70;22.50;102366.00;;;;5020299;28;20049;-72
2022/07/17 06:11:10;;;;;;;2.08;0.55;;;23.40;43.60;22.50;102354.00;;;;5028047;28;20080;-71
2022/07/17 06:13:56;;;;;;;0.73;0.40;;;23.40;43.70;22.50;102345.00;;;;5022796;28;20045;-72
2022/07/17 06:16:42;;;;;;;1.42;0.55;;;23.40;43.70;22.60;102348.00;;;;5020525;28;20045;-72
2022/07/17 06:19:28;;;;;;;0.80;0.40;;;23.40;43.80;22.60;102355.00;;;;5021146;28;20045;-72
2022/07/17 06:22:14;;;;;;;1.80;0.73;;;23.30;43.70;22.60;102364.00;;;;5024964;28;20053;-72
2022/07/17 06:25:00;;;;;;;0.68;0.43;;;23.40;43.70;22.60;102362.00;;;;5024007;28;20042;-72
2022/07/17 06:27:46;;;;;;;3.03;0.50;;;23.40;43.80;22.60;102363.00;;;;5023429;28;20350;-71
2022/07/17 06:30:32;;;;;;;1.75;0.45;;;23.40;43.80;22.60;102370.00;;;;5025240;28;20177;-72
2022/07/17 06:33:18;;;;;;;2.78;0.50;;;23.50;43.70;22.60;102369.00;;;;5021098;28;20259;-72
2022/07/17 06:36:05;;;;;;;1.35;0.57;;;23.50;43.70;22.60;102363.00;;;;5026035;28;20522;-72
2022/07/17 06:38:51;;;;;;;1.80;0.60;;;23.50;43.80;22.60;102361.00;;;;5024328;28;20037;-72
2022/07/17 06:41:37;;;;;;;1.80;0.63;;;23.50;43.80;22.60;102356.00;;;;5020508;28;20406;-72
2022/07/17 06:44:23;;;;;;;0.88;0.40;;;23.50;43.80;22.60;102343.00;;;;5024236;28;20025;-72
2022/07/17 06:47:09;;;;;;;1.65;0.50;;;23.50;43.80;22.70;102336.00;;;;5031253;28;20046;-72
2022/07/17 06:49:55;;;;;;;1.73;0.68;;;23.50;43.70;22.70;102335.00;;;;5017622;28;20041;-72
2022/07/17 06:52:41;;;;;;;2.30;0.80;;;23.50;43.80;22.70;102332.00;;;;5026743;28;20049;-72
2022/07/17 06:55:27;;;;;;;1.45;0.60;;;23.60;43.80;22.70;102347.00;;;;5020829;28;20447;-72
2022/07/17 06:58:13;;;;;;;0.95;0.43;;;23.60;43.90;22.70;102345.00;;;;5024901;28;20090;-71
2022/07/17 07:00:59;;;;;;;1.23;0.60;;;23.60;43.90;22.70;102338.00;;;;5025542;28;20060;-72
2022/07/17 07:03:45;;;;;;;1.20;0.50;;;23.60;43.90;22.70;102339.00;;;;5025745;28;20041;-72
2022/07/17 07:06:31;;;;;;;2.33;0.50;;;23.60;43.80;22.70;102349.00;;;;5024647;28;20067;-72
2022/07/17 07:09:17;;;;;;;1.92;0.60;;;23.70;43.80;22.70;102345.00;;;;5023752;28;20088;-72
2022/07/17 07:12:04;;;;;;;1.50;0.80;;;23.60;43.90;22.70;102354.00;;;;5026091;28;20053;-72
2022/07/17 07:14:50;;;;;;;0.73;0.50;;;23.60;43.90;22.70;102362.00;;;;5020215;28;20048;-72
2022/07/17 07:17:36;;;;;;;2.00;0.85;;;23.60;43.90;22.70;102373.00;;;;5022817;28;20040;-72
2022/07/17 07:20:22;;;;;;;1.65;0.60;;;23.70;43.90;22.70;102382.00;;;;5022007;28;20045;-72
2022/07/17 07:23:08;;;;;;;1.75;0.77;;;23.70;43.90;22.70;102396.00;;;;5015501;28;20121;-72
2022/07/17 07:25:54;;;;;;;3.67;0.90;;;23.70;44.00;22.70;102407.00;;;;5027970;28;20041;-72
2022/07/17 07:28:40;;;;;;;1.95;0.70;;;23.70;43.90;22.70;102416.00;;;;5027222;28;20219;-72
2022/07/17 07:31:26;;;;;;;1.15;0.47;;;23.70;43.90;22.70;102413.00;;;;5022466;28;20053;-72
2022/07/17 07:34:12;;;;;;;1.00;0.70;;;23.70;44.00;22.70;102409.00;;;;5020810;28;20041;-72
2022/07/17 07:36:58;;;;;;;1.35;0.57;;;23.70;43.90;22.70;102405.00;;;;5026308;28;20049;-71
2022/07/17 07:39:44;;;;;;;1.30;0.70;;;23.70;44.00;22.80;102411.00;;;;5023026;28;20403;-71
2022/07/17 07:42:30;;;;;;;1.35;0.70;;;23.70;44.00;22.70;102407.00;;;;5025893;28;20103;-71
2022/07/17 07:45:16;;;;;;;0.88;0.52;;;23.70;44.00;22.80;102405.00;;;;5027362;28;20585;-71
2022/07/17 07:48:02;;;;;;;0.55;0.35;;;23.70;44.00;22.80;102394.00;;;;5022075;28;20095;-72
2022/07/17 07:50:49;;;;;;;1.08;0.70;;;23.70;43.90;22.80;102401.00;;;;5025443;28;20581;-72
2022/07/17 07:53:35;;;;;;;3.85;0.60;;;23.70;43.90;22.80;102392.00;;;;5019974;28;20131;-72
2022/07/17 07:56:22;;;;;;;1.50;0.60;;;23.70;43.90;22.80;102395.00;;;;5023213;28;20041;-72
2022/07/17 07:59:08;;;;;;;1.05;0.52;;;23.80;43.90;22.80;102400.00;;;;5027597;28;20459;-71
2022/07/17 08:01:54;;;;;;;2.10;0.52;;;23.70;43.90;22.80;102400.00;;;;5021721;28;20037;-72
2022/07/17 08:04:40;;;;;;;1.05;0.50;;;23.70;43.90;22.80;102401.00;;;;5017796;28;20479;-71
2022/07/17 08:07:27;;;;;;;2.25;0.80;;;23.70;43.80;22.80;102404.00;;;;5024355;28;20059;-72
2022/07/17 08:10:13;;;;;;;1.38;0.50;;;23.80;44.00;22.80;102409.00;;;;5022074;28;20061;-72
2022/07/17 08:12:59;;;;;;;1.63;0.65;;;23.70;43.90;22.80;102406.00;;;;5021548;28;20046;-72
2022/07/17 08:15:46;;;;;;;0.75;0.40;;;23.80;43.90;22.80;102410.00;;;;5023542;28;20053;-72
2022/07/17 08:18:32;;;;;;;3.35;1.08;;;23.80;43.90;22.80;102412.00;;;;5018834;28;20475;-71
2022/07/17 08:21:18;;;;;;;1.50;0.63;;;23.80;43.90;22.80;102408.00;;;;5022619;28;20128;-72
2022/07/17 08:24:04;;;;;;;1.58;0.60;;;23.80;43.80;22.80;102414.00;;;;5019168;28;20042;-72
2022/07/17 08:26:50;;;;;;;1.52;0.70;;;23.80;43.90;22.80;102406.00;;;;5007812;28;20042;-72
2022/07/17 08:29:36;;;;;;;2.53;0.98;;;23.80;43.90;22.80;102397.00;;;;5015351;28;20124;-71
2022/07/17 08:32:22;;;;;;;1.08;0.60;;;23.80;44.00;22.80;102400.00;;;;5023151;28;20033;-72
2022/07/17 08:35:10;;;;;;;3.22;1.27;;;23.80;44.00;22.80;102396.00;;;;5018405;28;20053;-72
2022/07/17 08:37:56;;;;;;;2.33;0.73;;;23.70;44.20;22.80;102406.00;;;;5016734;28;20038;-71
2022/07/17 08:40:43;;;;;;;2.08;0.70;;;23.80;44.00;22.80;102398.00;;;;5021023;28;20038;-71
2022/07/17 08:43:29;;;;;;;1.30;0.93;;;23.80;44.00;22.80;102403.00;;;;5020725;28;20116;-70
2022/07/17 08:46:15;;;;;;;2.20;0.80;;;23.80;44.00;22.80;102396.00;;;;5017624;28;20733;-70
2022/07/17 08:49:01;;;;;;;1.90;0.60;;;23.80;44.00;22.80;102394.00;;;;5009379;28;20052;-71
2022/07/17 08:51:48;;;;;;;2.22;0.90;;;23.80;44.60;22.80;102399.00;;;;5020383;28;20052;-71
2022/07/17 08:54:34;;;;;;;2.70;0.77;;;23.80;44.00;22.80;102393.00;;;;5016347;28;20128;-70
2022/07/17 08:57:20;;;;;;;1.95;0.75;;;23.80;44.00;22.80;102402.00;;;;5020603;28;20045;-72
2022/07/17 09:00:07;;;;;;;0.85;0.52;;;23.80;44.00;22.80;102393.00;;;;5019335;28;20488;-72
2022/07/17 09:03:04;;;;;;;3.38;0.70;;;23.80;44.10;22.80;102397.00;;;;5017946;28;20038;-72
2022/07/17 09:05:50;;;;;;;2.45;0.70;;;23.80;44.00;22.80;102387.00;;;;5018811;28;20075;-72
2022/07/17 09:08:37;;;;;;;1.52;0.50;;;23.80;44.00;22.80;102390.00;;;;5014683;28;20053;-72
2022/07/17 09:11:23;;;;;;;3.25;0.57;;;23.80;44.00;22.80;102391.00;;;;5020893;28;20045;-72
2022/07/17 09:14:09;;;;;;;0.75;0.35;;;23.80;43.90;22.80;102386.00;;;;5020492;28;20493;-72
2022/07/17 09:16:57;;;;;;;2.58;0.60;;;23.80;44.00;22.80;102392.00;;;;5018773;28;20041;-72
2022/07/17 09:19:47;;;;;;;1.67;0.52;;;23.80;44.00;22.80;102382.00;;;;5020857;28;20037;-71
2022/07/17 09:22:33;;;;;;;1.45;0.60;;;23.80;44.00;22.80;102394.00;;;;5013647;28;20576;-71
2022/07/17 09:25:19;;;;;;;0.90;0.50;;;23.80;44.10;22.90;102400.00;;;;5020375;28;20049;-71
2022/07/17 09:28:06;;;;;;;1.73;0.60;;;23.80;44.00;22.80;102393.00;;;;5026914;28;20068;-71
2022/07/17 09:30:54;;;;;;;2.10;0.77;;;23.80;44.00;22.90;102400.00;;;;5016175;28;20053;-71
2022/07/17 09:33:40;;;;;;;1.83;0.70;;;23.80;44.00;22.90;102397.00;;;;5018361;28;20103;-71
2022/07/17 09:36:26;;;;;;;2.47;0.60;;;23.80;44.00;22.90;102400.00;;;;5019169;28;20099;-71
2022/07/17 09:39:12;;;;;;;2.00;0.80;;;23.80;44.10;22.90;102389.00;;;;5022279;28;20166;-71
2022/07/17 09:41:58;;;;;;;1.63;0.47;;;23.80;44.00;22.90;102395.00;;;;5021388;28;20033;-75
2022/07/17 09:45:08;;;;;;;1.70;0.60;;;23.90;44.80;22.90;102394.00;;;;5021861;28;20045;-72
2022/07/17 09:47:55;;;;;;;1.83;0.50;;;23.80;44.00;22.90;102394.00;;;;5009298;28;20034;-72
2022/07/17 09:50:41;;;;;;;2.08;0.73;;;23.80;44.00;22.90;102387.00;;;;5014923;28;20337;-71
2022/07/17 09:53:28;;;;;;;1.95;0.65;;;23.90;44.00;22.90;102390.00;;;;5024599;28;20044;-71
2022/07/17 09:56:17;;;;;;;2.25;0.57;;;23.90;44.00;22.90;102395.00;;;;5034764;28;20056;-71
2022/07/17 09:59:10;;;;;;;1.85;0.88;;;23.80;44.00;22.90;102377.00;;;;5016744;28;20359;-71
2022/07/17 10:01:56;;;;;;;1.27;0.63;;;23.80;44.00;22.90;102373.00;;;;5022467;28;20052;-71
2022/07/17 10:04:42;;;;;;;2.35;0.55;;;23.80;43.90;22.90;102376.00;;;;5023720;28;20056;-71
2022/07/17 10:07:28;;;;;;;2.17;0.50;;;23.80;44.00;22.90;102384.00;;;;5021261;28;20072;-71
2022/07/17 10:10:16;;;;;;;0.40;0.40;;;23.90;44.00;22.90;102383.00;;;;5033039;28;20068;-70
2022/07/17 10:13:02;;;;;;;;;;;23.90;44.00;22.90;102382.00;;;;5022199;28;20049;-70
2022/07/17 10:15:49;;;;;;;0.90;0.65;;;23.90;44.00;22.90;102378.00;;;;5021743;28;19917;-70
2022/07/17 10:18:43;;;;;;;2.05;0.80;;;23.90;43.80;22.90;102384.00;;;;5023810;28;20044;-63
2022/07/17 10:21:30;;;;;;;1.65;0.70;;;23.90;43.90;22.90;102381.00;;;;5020973;28;20115;-64
2022/07/17 10:24:16;;;;;;;1.30;0.43;;;23.90;43.90;22.90;102381.00;;;;5024004;28;20445;-64
2022/07/17 10:27:02;;;;;;;2.00;0.60;;;23.90;43.90;22.90;102384.00;;;;5016036;28;20034;-64
2022/07/17 10:30:09;;;;;;;2.50;0.70;;;23.90;43.90;22.90;102378.00;;;;5025100;28;20604;-63
2022/07/17 10:32:58;;;;;;;2.03;0.73;;;23.90;44.00;22.90;102386.00;;;;5018039;28;20194;-63
2022/07/17 10:35:47;;;;;;;1.13;0.50;;;23.90;43.80;22.90;102375.00;;;;5021236;28;20041;-64
2022/07/17 10:38:41;;;;;;;0.95;0.47;;;23.80;43.80;22.90;102368.00;;;;5018013;28;20141;-65
2022/07/17 10:41:27;;;;;;;1.50;0.70;;;24.00;43.90;22.90;102374.00;;;;5006677;28;20132;-65
2022/07/17 10:44:27;;;;;;;3.95;1.00;;;23.90;43.80;22.90;102383.00;;;;5017834;28;20041;-65
2022/07/17 10:47:13;;;;;;;1.70;0.43;;;23.90;43.70;22.90;102377.00;;;;5009564;28;20084;-65
2022/07/17 10:49:59;;;;;;;4.32;0.75;;;23.90;43.80;22.90;102366.00;;;;5018645;28;20046;-69
2022/07/17 10:52:55;;;;;;;2.63;0.70;;;24.00;43.70;22.90;102374.00;;;;4996302;28;20045;-65
2022/07/17 10:55:52;;;;;;;5.13;0.50;;;23.80;43.60;23.00;102364.00;;;;5022571;28;20050;-65
2022/07/17 10:58:42;;;;;;;3.65;0.60;;;23.90;43.70;23.00;102370.00;;;;5019732;28;20225;-65
2022/07/17 11:01:29;;;;;;;2.45;0.40;;;23.90;43.60;23.00;102371.00;;;;5020880;28;20513;-65
2022/07/17 11:04:15;;;;;;;2.08;0.70;;;24.00;43.70;23.00;102369.00;;;;5022614;28;20052;-65
2022/07/17 11:07:06;;;;;;;2.65;0.40;;;24.00;43.80;23.00;102371.00;;;;5025938;28;20135;-65
2022/07/17 11:09:52;;;;;;;0.80;0.80;;;24.00;43.80;23.00;102369.00;;;;5020676;28;20056;-65
2022/07/17 11:12:38;;;;;;;0.95;0.50;;;24.00;43.80;23.00;102367.00;;;;5023361;28;20111;-65
2022/07/17 11:15:24;;;;;;;1.75;0.70;;;24.10;43.70;23.00;102368.00;;;;5018622;28;20068;-66
2022/07/17 11:18:55;;;;;;;1.67;0.60;;;24.10;43.60;23.00;102369.00;;;;5019943;28;20038;-65
2022/07/17 11:21:48;;;;;;;1.52;0.60;;;24.00;43.70;23.00;102366.00;;;;5037583;28;20060;-66
2022/07/17 11:24:44;;;;;;;0.68;0.40;;;24.00;43.40;23.00;102371.00;;;;5024261;28;20199;-65
2022/07/17 11:27:30;;;;;;;0.95;0.50;;;24.00;43.40;23.00;102367.00;;;;5021991;28;20045;-66
2022/07/17 11:30:19;;;;;;;1.08;0.60;;;24.00;43.50;23.00;102367.00;;;;5022226;28;20080;-65
2022/07/17 11:33:15;;;;;;;2.05;0.52;;;24.00;43.40;23.00;102360.00;;;;5047528;28;20053;-65
2022/07/17 11:36:01;;;;;;;2.88;0.63;;;24.00;43.30;23.00;102357.00;;;;5023055;28;20041;-65
2022/07/17 11:38:47;;;;;;;0.77;0.35;;;24.00;43.40;23.00;102355.00;;;;5016939;28;20320;-66
2022/07/17 11:41:44;;;;;;;1.13;0.50;;;24.00;43.40;23.00;102355.00;;;;5026206;28;20380;-65
2022/07/17 11:44:31;;;;;;;2.80;0.90;;;24.00;43.30;23.00;102353.00;;;;5023780;28;20050;-66
2022/07/17 11:47:26;;;;;;;1.10;0.60;;;24.00;43.30;23.00;102350.00;;;;5037600;28;20087;-65
2022/07/17 11:50:13;;;;;;;1.48;0.50;;;24.00;43.20;23.00;102349.00;;;;5023339;28;20422;-65
2022/07/17 11:53:05;;;;;;;1.50;0.40;;;24.00;43.40;23.00;102344.00;;;;5018323;28;20083;-66
2022/07/17 11:55:51;;;;;;;1.52;0.40;;;24.10;43.20;23.00;102345.00;;;;5025260;28;20041;-65
2022/07/17 11:58:43;;;;;;;1.73;0.50;;;24.10;43.40;23.00;102347.00;;;;5018269;28;20033;-65
2022/07/17 12:01:37;;;;;;;0.88;0.38;;;24.10;43.30;23.00;102346.00;;;;5018934;28;20657;-65
2022/07/17 12:04:23;;;;;;;0.90;0.40;;;24.00;43.30;23.00;102344.00;;;;5010337;28;20088;-65
2022/07/17 12:07:09;;;;;;;1.02;0.40;;;24.10;43.30;23.00;102343.00;;;;5024412;28;20407;-66
2022/07/17 12:09:55;;;;;;;0.95;0.45;;;24.10;43.20;23.00;102335.00;;;;5023505;28;20080;-66
2022/07/17 12:13:05;;;;;;;0.77;0.38;;;24.10;43.20;23.00;102332.00;;;;5023772;28;20049;-66
2022/07/17 12:15:52;;;;;;;1.55;0.85;;;24.00;43.20;23.00;102336.00;;;;5017648;28;20565;-66